sensor_id;sensor_type;location;lat;lon;timestamp;temperature;humidity
19385;DHT22;9828;54.122;17.974;2023-03-29T00:01:23;0.20;99.90
19385;DHT22;9828;54.122;17.974;2023-03-29T00:07:05;0.20;99.90
19385;DHT22;9828;54.122;17.974;2023-03-29T00:12:27;0.10;99.90
19385;DHT22;9828;54.122;17.974;2023-03-29T00:17:48;0.10;99.90
19385;DHT22;9828;54.122;17.974;2023-03-29T00:23:09;0.20;99.90
19385;DHT22;9828;54.122;17.974;2023-03-29T00:28:31;0.10;99.90
19385;DHT22;9828;54.122;17.974;2023-03-29T00:33:52;0.10;99.90
19385;DHT22;9828;54.122;17.974;2023-03-29T00:39:13;0.10;99.90
19385;DHT22;9828;54.122;17.974;2023-03-29T00:50:42;0.00;99.90
19385;DHT22;9828;54.122;17.974;2023-03-29T00:56:10;0.00;99.90
19385;DHT22;9828;54.122;17.974;2023-03-29T01:13:07;0.00;99.90
19385;DHT22;9828;54.122;17.974;2023-03-29T01:18:30;-0.10;99.90
19385;DHT22;9828;54.122;17.974;2023-03-29T01:29:39;0.00;99.90
19385;DHT22;9828;54.122;17.974;2023-03-29T01:40:32;-0.20;99.90
19385;DHT22;9828;54.122;17.974;2023-03-29T01:51:38;-0.30;99.90
19385;DHT22;9828;54.122;17.974;2023-03-29T01:57:01;-0.30;99.90
19385;DHT22;9828;54.122;17.974;2023-03-29T02:07:49;-0.50;99.90
19385;DHT22;9828;54.122;17.974;2023-03-29T02:13:11;-0.60;99.90
19385;DHT22;9828;54.122;17.974;2023-03-29T02:18:33;-0.70;99.90
19385;DHT22;9828;54.122;17.974;2023-03-29T02:23:58;-0.70;99.90
19385;DHT22;9828;54.122;17.974;2023-03-29T02:29:20;-0.60;99.90
19385;DHT22;9828;54.122;17.974;2023-03-29T02:34:47;-0.60;99.90
19385;DHT22;9828;54.122;17.974;2023-03-29T02:40:11;-0.70;99.90
19385;DHT22;9828;54.122;17.974;2023-03-29T02:45:35;-0.70;99.90
19385;DHT22;9828;54.122;17.974;2023-03-29T02:51:00;-0.80;99.90
19385;DHT22;9828;54.122;17.974;2023-03-29T02:56:23;-0.90;99.90
19385;DHT22;9828;54.122;17.974;2023-03-29T03:01:44;-0.90;99.90
19385;DHT22;9828;54.122;17.974;2023-03-29T03:07:06;-0.90;99.90
19385;DHT22;9828;54.122;17.974;2023-03-29T03:12:27;-0.90;99.90
19385;DHT22;9828;54.122;17.974;2023-03-29T03:17:49;-0.90;99.90
19385;DHT22;9828;54.122;17.974;2023-03-29T03:23:10;-0.90;99.90
19385;DHT22;9828;54.122;17.974;2023-03-29T03:28:32;-0.80;99.90
19385;DHT22;9828;54.122;17.974;2023-03-29T03:33:56;-0.70;99.90
19385;DHT22;9828;54.122;17.974;2023-03-29T03:39:29;-0.80;99.90
19385;DHT22;9828;54.122;17.974;2023-03-29T03:44:52;-0.80;99.90
19385;DHT22;9828;54.122;17.974;2023-03-29T03:50:34;-0.80;99.90
19385;DHT22;9828;54.122;17.974;2023-03-29T03:55:55;-0.90;99.90
19385;DHT22;9828;54.122;17.974;2023-03-29T04:01:20;-0.90;99.90
19385;DHT22;9828;54.122;17.974;2023-03-29T04:06:53;-1.00;99.90
19385;DHT22;9828;54.122;17.974;2023-03-29T04:12:35;-1.00;99.90
19385;DHT22;9828;54.122;17.974;2023-03-29T04:17:59;-1.00;99.90
19385;DHT22;9828;54.122;17.974;2023-03-29T04:23:26;-1.00;99.90
19385;DHT22;9828;54.122;17.974;2023-03-29T04:28:48;-1.00;99.90
19385;DHT22;9828;54.122;17.974;2023-03-29T04:34:19;-1.10;99.90
19385;DHT22;9828;54.122;17.974;2023-03-29T04:39:47;-1.20;99.90
19385;DHT22;9828;54.122;17.974;2023-03-29T04:45:09;-1.10;99.90
19385;DHT22;9828;54.122;17.974;2023-03-29T04:50:49;-1.10;99.90
19385;DHT22;9828;54.122;17.974;2023-03-29T04:56:12;-1.10;99.90
19385;DHT22;9828;54.122;17.974;2023-03-29T05:01:53;-1.20;99.90
19385;DHT22;9828;54.122;17.974;2023-03-29T05:07:15;-1.20;99.90
19385;DHT22;9828;54.122;17.974;2023-03-29T05:12:39;-1.20;99.90
19385;DHT22;9828;54.122;17.974;2023-03-29T05:18:01;-1.20;99.90
19385;DHT22;9828;54.122;17.974;2023-03-29T05:23:24;-1.10;99.90
19385;DHT22;9828;54.122;17.974;2023-03-29T05:29:17;-1.10;99.90
19385;DHT22;9828;54.122;17.974;2023-03-29T05:34:45;-1.00;99.90
19385;DHT22;9828;54.122;17.974;2023-03-29T05:40:06;-0.80;99.90
19385;DHT22;9828;54.122;17.974;2023-03-29T05:46:04;-0.70;99.90
19385;DHT22;9828;54.122;17.974;2023-03-29T05:51:28;-0.70;99.90
19385;DHT22;9828;54.122;17.974;2023-03-29T05:56:49;-0.60;99.90
19385;DHT22;9828;54.122;17.974;2023-03-29T06:02:11;-0.50;99.90
19385;DHT22;9828;54.122;17.974;2023-03-29T06:07:38;-0.40;99.50
19385;DHT22;9828;54.122;17.974;2023-03-29T06:13:18;-0.30;98.70
19385;DHT22;9828;54.122;17.974;2023-03-29T06:18:39;-0.10;97.90
19385;DHT22;9828;54.122;17.974;2023-03-29T06:24:01;0.10;97.00
19385;DHT22;9828;54.122;17.974;2023-03-29T06:29:29;0.30;94.30
19385;DHT22;9828;54.122;17.974;2023-03-29T06:34:51;0.30;92.40
19385;DHT22;9828;54.122;17.974;2023-03-29T06:40:32;0.60;88.50
19385;DHT22;9828;54.122;17.974;2023-03-29T06:45:53;0.90;83.60
19385;DHT22;9828;54.122;17.974;2023-03-29T06:51:26;1.40;79.00
19385;DHT22;9828;54.122;17.974;2023-03-29T06:56:47;3.30;48.40
19385;DHT22;9828;54.122;17.974;2023-03-29T07:02:10;5.20;28.60
19385;DHT22;9828;54.122;17.974;2023-03-29T07:07:44;6.70;19.50
19385;DHT22;9828;54.122;17.974;2023-03-29T07:24:49;9.50;9.20
19385;DHT22;9828;54.122;17.974;2023-03-29T07:30:14;10.50;8.30
19385;DHT22;9828;54.122;17.974;2023-03-29T07:35:36;11.00;5.50
19385;DHT22;9828;54.122;17.974;2023-03-29T07:41:01;11.30;5.10
19385;DHT22;9828;54.122;17.974;2023-03-29T07:51:57;12.50;12.30
19385;DHT22;9828;54.122;17.974;2023-03-29T08:08:12;13.20;1.00
19385;DHT22;9828;54.122;17.974;2023-03-29T08:13:58;12.90;1.00
19385;DHT22;9828;54.122;17.974;2023-03-29T08:19:19;13.10;1.00
19385;DHT22;9828;54.122;17.974;2023-03-29T08:24:52;13.70;1.00
19385;DHT22;9828;54.122;17.974;2023-03-29T08:30:18;13.70;1.00
19385;DHT22;9828;54.122;17.974;2023-03-29T08:47:14;14.30;15.50
19385;DHT22;9828;54.122;17.974;2023-03-29T09:09:41;15.50;1.00
19385;DHT22;9828;54.122;17.974;2023-03-29T09:15:21;15.70;1.00
19385;DHT22;9828;54.122;17.974;2023-03-29T09:21:15;15.20;1.00
19385;DHT22;9828;54.122;17.974;2023-03-29T09:26:47;14.60;1.00
19385;DHT22;9828;54.122;17.974;2023-03-29T09:32:51;15.00;1.00
19385;DHT22;9828;54.122;17.974;2023-03-29T09:38:20;15.70;1.00
19385;DHT22;9828;54.122;17.974;2023-03-29T09:43:44;16.40;1.00
19385;DHT22;9828;54.122;17.974;2023-03-29T09:49:35;16.70;1.00
19385;DHT22;9828;54.122;17.974;2023-03-29T09:54:58;16.40;1.00
19385;DHT22;9828;54.122;17.974;2023-03-29T10:00:41;15.90;1.00
19385;DHT22;9828;54.122;17.974;2023-03-29T10:06:05;15.70;1.00
19385;DHT22;9828;54.122;17.974;2023-03-29T10:11:32;16.20;1.00
19385;DHT22;9828;54.122;17.974;2023-03-29T10:16:55;16.20;1.00
19385;DHT22;9828;54.122;17.974;2023-03-29T10:22:22;16.30;1.00
19385;DHT22;9828;54.122;17.974;2023-03-29T10:27:45;16.40;1.00
19385;DHT22;9828;54.122;17.974;2023-03-29T10:33:16;16.00;1.00
19385;DHT22;9828;54.122;17.974;2023-03-29T10:38:38;15.50;1.00
19385;DHT22;9828;54.122;17.974;2023-03-29T10:43:59;15.70;1.00
19385;DHT22;9828;54.122;17.974;2023-03-29T10:49:22;15.50;1.00
19385;DHT22;9828;54.122;17.974;2023-03-29T10:54:43;15.40;1.00
19385;DHT22;9828;54.122;17.974;2023-03-29T11:00:19;15.80;1.00
19385;DHT22;9828;54.122;17.974;2023-03-29T11:06:11;15.60;1.00
19385;DHT22;9828;54.122;17.974;2023-03-29T11:12:03;14.50;1.00
19385;DHT22;9828;54.122;17.974;2023-03-29T11:17:53;13.90;1.00
19385;DHT22;9828;54.122;17.974;2023-03-29T11:23:34;14.70;1.00
19385;DHT22;9828;54.122;17.974;2023-03-29T11:29:51;14.90;1.00
19385;DHT22;9828;54.122;17.974;2023-03-29T11:40:55;13.10;1.00
19385;DHT22;9828;54.122;17.974;2023-03-29T11:46:36;12.30;1.50
19385;DHT22;9828;54.122;17.974;2023-03-29T11:52:07;12.20;1.90
19385;DHT22;9828;54.122;17.974;2023-03-29T12:08:37;12.20;2.00
19385;DHT22;9828;54.122;17.974;2023-03-29T12:14:21;12.70;2.00
19385;DHT22;9828;54.122;17.974;2023-03-29T12:20:12;12.40;2.00
19385;DHT22;9828;54.122;17.974;2023-03-29T12:43:36;11.30;4.90
19385;DHT22;9828;54.122;17.974;2023-03-29T12:49:25;11.70;4.40
19385;DHT22;9828;54.122;17.974;2023-03-29T12:54:58;11.60;4.10
19385;DHT22;9828;54.122;17.974;2023-03-29T13:00:25;11.40;4.90
19385;DHT22;9828;54.122;17.974;2023-03-29T13:06:00;11.10;5.30
19385;DHT22;9828;54.122;17.974;2023-03-29T13:12:16;11.00;5.80
19385;DHT22;9828;54.122;17.974;2023-03-29T13:57:36;10.00;7.90
19385;DHT22;9828;54.122;17.974;2023-03-29T14:03:04;9.80;8.60
19385;DHT22;9828;54.122;17.974;2023-03-29T14:08:28;9.80;9.30
19385;DHT22;9828;54.122;17.974;2023-03-29T14:13:54;9.70;9.80
19385;DHT22;9828;54.122;17.974;2023-03-29T14:19:27;9.60;10.60
19385;DHT22;9828;54.122;17.974;2023-03-29T14:24:53;9.50;10.30
19385;DHT22;9828;54.122;17.974;2023-03-29T14:30:28;9.40;11.00
19385;DHT22;9828;54.122;17.974;2023-03-29T14:35:49;9.50;11.10
19385;DHT22;9828;54.122;17.974;2023-03-29T14:41:10;9.70;11.20
19385;DHT22;9828;54.122;17.974;2023-03-29T14:46:32;9.90;10.90
19385;DHT22;9828;54.122;17.974;2023-03-29T14:51:54;9.70;11.00
19385;DHT22;9828;54.122;17.974;2023-03-29T14:57:16;9.70;11.40
19385;DHT22;9828;54.122;17.974;2023-03-29T15:02:48;9.50;11.90
19385;DHT22;9828;54.122;17.974;2023-03-29T15:08:31;9.40;11.60
19385;DHT22;9828;54.122;17.974;2023-03-29T15:14:19;9.50;11.70
19385;DHT22;9828;54.122;17.974;2023-03-29T15:19:41;9.50;12.40
19385;DHT22;9828;54.122;17.974;2023-03-29T15:25:07;9.40;12.20
19385;DHT22;9828;54.122;17.974;2023-03-29T15:35:54;9.40;12.20
19385;DHT22;9828;54.122;17.974;2023-03-29T15:41:16;9.30;12.40
19385;DHT22;9828;54.122;17.974;2023-03-29T15:46:37;9.20;12.50
19385;DHT22;9828;54.122;17.974;2023-03-29T15:51:58;9.10;13.20
19385;DHT22;9828;54.122;17.974;2023-03-29T15:57:19;9.10;13.40
19385;DHT22;9828;54.122;17.974;2023-03-29T16:02:40;9.00;13.70
19385;DHT22;9828;54.122;17.974;2023-03-29T16:08:01;8.90;14.20
19385;DHT22;9828;54.122;17.974;2023-03-29T16:13:22;8.90;15.40
19385;DHT22;9828;54.122;17.974;2023-03-29T16:18:43;8.80;16.10
19385;DHT22;9828;54.122;17.974;2023-03-29T16:24:04;8.90;16.90
19385;DHT22;9828;54.122;17.974;2023-03-29T16:29:27;8.80;17.90
19385;DHT22;9828;54.122;17.974;2023-03-29T16:34:48;8.80;18.70
19385;DHT22;9828;54.122;17.974;2023-03-29T16:40:10;8.80;19.20
19385;DHT22;9828;54.122;17.974;2023-03-29T16:45:32;8.70;19.90
19385;DHT22;9828;54.122;17.974;2023-03-29T16:50:53;8.70;20.90
19385;DHT22;9828;54.122;17.974;2023-03-29T16:56:14;8.60;23.20
19385;DHT22;9828;54.122;17.974;2023-03-29T17:01:35;8.50;25.20
19385;DHT22;9828;54.122;17.974;2023-03-29T17:06:56;8.50;25.40
19385;DHT22;9828;54.122;17.974;2023-03-29T17:12:18;8.50;26.70
19385;DHT22;9828;54.122;17.974;2023-03-29T17:17:41;8.40;28.50
19385;DHT22;9828;54.122;17.974;2023-03-29T17:23:02;8.40;29.00
19385;DHT22;9828;54.122;17.974;2023-03-29T17:28:24;8.30;30.00
19385;DHT22;9828;54.122;17.974;2023-03-29T17:33:45;8.40;34.10
19385;DHT22;9828;54.122;17.974;2023-03-29T17:39:08;8.30;34.20
19385;DHT22;9828;54.122;17.974;2023-03-29T17:44:29;8.20;38.00
19385;DHT22;9828;54.122;17.974;2023-03-29T17:49:52;8.30;38.90
19385;DHT22;9828;54.122;17.974;2023-03-29T17:55:13;8.20;39.30
19385;DHT22;9828;54.122;17.974;2023-03-29T18:00:34;8.20;41.00
19385;DHT22;9828;54.122;17.974;2023-03-29T18:05:56;8.10;44.80
19385;DHT22;9828;54.122;17.974;2023-03-29T18:11:19;8.10;46.70
19385;DHT22;9828;54.122;17.974;2023-03-29T18:16:44;7.90;33.20
19385;DHT22;9828;54.122;17.974;2023-03-29T18:22:06;7.80;36.30
19385;DHT22;9828;54.122;17.974;2023-03-29T18:27:27;7.70;36.80
19385;DHT22;9828;54.122;17.974;2023-03-29T18:32:50;7.70;38.30
19385;DHT22;9828;54.122;17.974;2023-03-29T18:38:11;7.70;38.00
19385;DHT22;9828;54.122;17.974;2023-03-29T18:43:32;7.60;41.60
19385;DHT22;9828;54.122;17.974;2023-03-29T18:48:53;7.60;40.60
19385;DHT22;9828;54.122;17.974;2023-03-29T18:54:15;7.60;41.60
19385;DHT22;9828;54.122;17.974;2023-03-29T18:59:37;7.50;43.60
19385;DHT22;9828;54.122;17.974;2023-03-29T19:04:58;7.50;45.20
19385;DHT22;9828;54.122;17.974;2023-03-29T19:10:19;7.40;44.30
19385;DHT22;9828;54.122;17.974;2023-03-29T19:15:41;7.40;48.60
19385;DHT22;9828;54.122;17.974;2023-03-29T19:21:02;7.40;49.70
19385;DHT22;9828;54.122;17.974;2023-03-29T19:26:23;7.40;49.00
19385;DHT22;9828;54.122;17.974;2023-03-29T19:31:44;7.40;50.90
19385;DHT22;9828;54.122;17.974;2023-03-29T19:37:06;7.40;53.10
19385;DHT22;9828;54.122;17.974;2023-03-29T19:42:27;7.40;52.40
19385;DHT22;9828;54.122;17.974;2023-03-29T19:47:56;7.40;52.70
19385;DHT22;9828;54.122;17.974;2023-03-29T19:53:17;7.40;58.30
19385;DHT22;9828;54.122;17.974;2023-03-29T19:58:38;7.40;57.50
19385;DHT22;9828;54.122;17.974;2023-03-29T20:04:01;7.30;57.10
19385;DHT22;9828;54.122;17.974;2023-03-29T20:09:22;7.30;64.80
19385;DHT22;9828;54.122;17.974;2023-03-29T20:14:43;7.30;60.10
19385;DHT22;9828;54.122;17.974;2023-03-29T20:20:09;7.30;60.50
19385;DHT22;9828;54.122;17.974;2023-03-29T20:25:33;7.30;64.20
19385;DHT22;9828;54.122;17.974;2023-03-29T20:30:55;7.20;61.50
19385;DHT22;9828;54.122;17.974;2023-03-29T20:36:16;7.20;68.10
19385;DHT22;9828;54.122;17.974;2023-03-29T20:41:38;7.20;70.50
19385;DHT22;9828;54.122;17.974;2023-03-29T20:46:59;7.20;69.60
19385;DHT22;9828;54.122;17.974;2023-03-29T20:52:24;7.20;75.80
19385;DHT22;9828;54.122;17.974;2023-03-29T20:57:45;7.10;76.70
19385;DHT22;9828;54.122;17.974;2023-03-29T21:03:06;7.10;80.00
19385;DHT22;9828;54.122;17.974;2023-03-29T21:08:28;7.10;82.70
19385;DHT22;9828;54.122;17.974;2023-03-29T21:13:50;7.00;83.90
19385;DHT22;9828;54.122;17.974;2023-03-29T21:19:12;7.00;83.30
19385;DHT22;9828;54.122;17.974;2023-03-29T21:24:34;7.00;85.30
19385;DHT22;9828;54.122;17.974;2023-03-29T21:29:58;7.00;87.40
19385;DHT22;9828;54.122;17.974;2023-03-29T21:35:19;7.00;87.60
19385;DHT22;9828;54.122;17.974;2023-03-29T21:40:41;7.00;90.20
19385;DHT22;9828;54.122;17.974;2023-03-29T21:46:02;7.00;90.90
19385;DHT22;9828;54.122;17.974;2023-03-29T21:51:23;7.00;90.20
19385;DHT22;9828;54.122;17.974;2023-03-29T21:56:44;7.00;91.60
19385;DHT22;9828;54.122;17.974;2023-03-29T22:02:07;7.00;91.10
19385;DHT22;9828;54.122;17.974;2023-03-29T22:07:28;7.00;92.10
19385;DHT22;9828;54.122;17.974;2023-03-29T22:12:50;7.00;92.10
19385;DHT22;9828;54.122;17.974;2023-03-29T22:18:11;7.00;92.40
19385;DHT22;9828;54.122;17.974;2023-03-29T22:23:32;7.00;93.10
19385;DHT22;9828;54.122;17.974;2023-03-29T22:28:54;7.00;93.20
19385;DHT22;9828;54.122;17.974;2023-03-29T22:34:15;7.00;94.50
19385;DHT22;9828;54.122;17.974;2023-03-29T22:39:36;7.00;94.50
19385;DHT22;9828;54.122;17.974;2023-03-29T22:44:57;7.00;94.80
19385;DHT22;9828;54.122;17.974;2023-03-29T22:50:18;7.00;95.00
19385;DHT22;9828;54.122;17.974;2023-03-29T22:55:39;7.00;95.80
19385;DHT22;9828;54.122;17.974;2023-03-29T23:01:01;7.00;95.40
19385;DHT22;9828;54.122;17.974;2023-03-29T23:06:22;7.00;95.40
19385;DHT22;9828;54.122;17.974;2023-03-29T23:11:43;7.00;96.20
19385;DHT22;9828;54.122;17.974;2023-03-29T23:17:04;7.00;95.80
19385;DHT22;9828;54.122;17.974;2023-03-29T23:22:26;7.00;96.70
19385;DHT22;9828;54.122;17.974;2023-03-29T23:27:47;7.00;96.40
19385;DHT22;9828;54.122;17.974;2023-03-29T23:33:08;7.00;96.80
19385;DHT22;9828;54.122;17.974;2023-03-29T23:38:31;7.00;96.80
19385;DHT22;9828;54.122;17.974;2023-03-29T23:43:53;7.00;97.30
19385;DHT22;9828;54.122;17.974;2023-03-29T23:49:14;7.00;97.40
19385;DHT22;9828;54.122;17.974;2023-03-29T23:54:36;7.00;97.60
19385;DHT22;9828;54.122;17.974;2023-03-29T23:59:57;7.00;97.70
